Time;durP1;ratioP1;P1;durP2;ratioP2;P2;SDS_P1;SDS_P2;PMS_P1;PMS_P2;Temp;Humidity;BMP_temperature;BMP_pressure;BME280_temperature;BME280_humidity;BME280_pressure;Samples;Min_cycle;Max_cycle;Signal;HPM_P1;HPM_P2
2024/01/23 00:01:36;;;;;;;3.40;1.23;;;9.60;96.70;;;;;;5053856;28;20592;-77
2024/01/23 00:04:04;;;;;;;2.45;1.45;;;9.60;96.70;;;;;;5046336;28;20532;-77
2024/01/23 00:06:34;;;;;;;3.53;1.30;;;9.60;96.70;;;;;;5059984;28;20094;-77
2024/01/23 00:09:04;;;;;;;3.58;1.30;;;9.60;96.70;;;;;;5054853;28;20091;-77
2024/01/23 00:11:33;;;;;;;2.67;1.10;;;9.60;96.70;;;;;;5052667;28;20558;-77
2024/01/23 00:14:03;;;;;;;2.75;0.95;;;9.60;96.70;;;;;;5063372;28;20053;-78
2024/01/23 00:16:33;;;;;;;3.20;1.35;;;9.60;96.70;;;;;;5064053;28;20057;-77
2024/01/23 00:19:02;;;;;;;1.58;0.90;;;9.60;96.70;;;;;;5058726;28;20059;-77
2024/01/23 00:21:31;;;;;;;2.83;0.85;;;9.60;96.70;;;;;;5064735;28;20045;-78
2024/01/23 00:24:02;;;;;;;2.08;1.10;;;9.70;96.70;;;;;;5062267;28;20059;-77
2024/01/23 00:26:31;;;;;;;5.20;1.27;;;9.70;96.70;;;;;;5047551;28;20130;-77
2024/01/23 00:29:00;;;;;;;1.85;1.08;;;9.70;96.70;;;;;;5061356;28;20053;-77
2024/01/23 00:31:28;;;;;;;2.58;1.05;;;9.70;96.70;;;;;;5062215;28;20052;-77
2024/01/23 00:33:58;;;;;;;2.53;0.95;;;9.60;96.70;;;;;;5060177;28;20118;-77
2024/01/23 00:36:29;;;;;;;2.33;1.05;;;9.70;96.70;;;;;;5064469;28;20471;-77
2024/01/23 00:38:59;;;;;;;3.72;1.40;;;9.60;96.70;;;;;;5062284;28;20052;-76
2024/01/23 00:41:29;;;;;;;2.38;1.17;;;9.60;96.70;;;;;;5051747;28;20041;-77
2024/01/23 00:43:57;;;;;;;3.58;1.38;;;9.60;96.70;;;;;;5064515;28;20072;-77
2024/01/23 00:46:27;;;;;;;2.08;1.20;;;9.60;96.70;;;;;;5058030;28;20063;-77
2024/01/23 00:48:57;;;;;;;3.15;1.05;;;9.60;96.70;;;;;;5071711;28;20056;-78
2024/01/23 00:51:27;;;;;;;2.05;1.10;;;9.60;96.70;;;;;;5059120;28;20049;-78
2024/01/23 00:53:55;;;;;;;1.73;1.10;;;9.60;96.70;;;;;;5064039;28;20086;-77
2024/01/23 00:56:25;;;;;;;2.88;1.25;;;9.60;96.70;;;;;;5055697;28;20076;-77
2024/01/23 00:58:54;;;;;;;2.63;1.42;;;9.60;96.70;;;;;;5063546;28;20474;-77
2024/01/23 01:01:24;;;;;;;2.20;1.20;;;9.60;96.70;;;;;;5062504;28;20056;-78
2024/01/23 01:03:52;;;;;;;2.47;1.10;;;9.60;96.70;;;;;;5062934;28;20117;-77
2024/01/23 01:06:22;;;;;;;2.38;1.10;;;9.60;96.70;;;;;;5073718;28;20064;-78
2024/01/23 01:08:52;;;;;;;4.50;1.25;;;9.60;96.70;;;;;;5064276;28;20065;-77
2024/01/23 01:11:21;;;;;;;1.77;1.17;;;9.70;96.70;;;;;;5058823;28;20049;-77
2024/01/23 01:13:51;;;;;;;2.13;1.20;;;9.60;96.70;;;;;;5063396;28;20055;-77
2024/01/23 01:16:20;;;;;;;4.15;1.40;;;9.60;96.70;;;;;;5064253;28;20509;-77
2024/01/23 01:18:50;;;;;;;2.90;1.40;;;9.70;96.70;;;;;;5062634;28;20579;-77
2024/01/23 01:21:22;;;;;;;3.92;1.30;;;9.60;96.70;;;;;;5063354;28;20519;-77
2024/01/23 01:23:53;;;;;;;2.17;1.10;;;9.60;96.70;;;;;;5073411;28;20524;-78
2024/01/23 01:26:26;;;;;;;2.00;1.02;;;9.70;96.70;;;;;;5067519;28;20048;-77
2024/01/23 01:28:57;;;;;;;2.45;1.40;;;9.70;96.70;;;;;;5065079;28;20064;-76
2024/01/23 01:31:31;;;;;;;4.75;1.40;;;9.70;96.70;;;;;;5067983;28;20068;-77
2024/01/23 01:34:10;;;;;;;2.50;1.42;;;9.70;96.70;;;;;;5057142;28;20053;-76
2024/01/23 01:36:46;;;;;;;2.40;1.58;;;9.60;96.70;;;;;;5067759;28;20098;-76
2024/01/23 01:39:14;;;;;;;3.67;1.45;;;9.60;96.70;;;;;;5067514;28;20103;-76
2024/01/23 01:41:43;;;;;;;2.30;1.65;;;9.60;96.70;;;;;;5068458;28;20784;-77
2024/01/23 01:44:13;;;;;;;2.40;1.27;;;9.60;96.70;;;;;;5070533;28;20056;-77
2024/01/23 01:46:43;;;;;;;2.55;1.17;;;9.60;96.70;;;;;;5067102;28;20493;-76
2024/01/23 01:49:12;;;;;;;3.30;1.33;;;9.60;96.70;;;;;;5068987;28;20061;-76
2024/01/23 01:51:43;;;;;;;5.00;1.30;;;9.60;96.70;;;;;;5078017;28;20127;-77
2024/01/23 01:54:12;;;;;;;1.40;0.90;;;9.50;96.70;;;;;;5079522;28;20060;-76
2024/01/23 01:56:45;;;;;;;3.83;1.58;;;9.50;96.70;;;;;;5085817;28;20051;-77
2024/01/23 01:59:13;;;;;;;3.25;1.35;;;9.50;96.70;;;;;;5086330;28;20565;-77
2024/01/23 02:01:42;;;;;;;4.93;1.30;;;9.50;96.70;;;;;;5071029;28;20146;-78
2024/01/23 02:04:10;;;;;;;2.45;1.05;;;9.50;96.70;;;;;;5070000;28;20401;-77
2024/01/23 02:06:40;;;;;;;2.80;1.17;;;9.50;96.70;;;;;;5092048;28;20078;-77
2024/01/23 02:09:11;;;;;;;3.10;0.90;;;9.50;96.70;;;;;;5076047;28;20134;-77
2024/01/23 02:11:55;;;;;;;2.50;1.38;;;9.50;96.70;;;;;;5086400;28;20896;-76
2024/01/23 02:14:26;;;;;;;3.08;1.10;;;9.50;96.70;;;;;;5083306;28;20580;-76
2024/01/23 02:16:54;;;;;;;2.90;1.25;;;9.50;96.70;;;;;;5073582;28;20544;-77
2024/01/23 02:19:23;;;;;;;3.38;1.30;;;9.50;96.70;;;;;;5079429;28;20807;-77
2024/01/23 02:21:52;;;;;;;2.47;1.10;;;9.50;96.70;;;;;;5075426;28;20059;-75
2024/01/23 02:24:22;;;;;;;2.05;1.13;;;9.50;96.70;;;;;;5084827;28;20052;-76
2024/01/23 02:26:50;;;;;;;6.65;1.70;;;9.50;96.70;;;;;;5075972;28;20139;-76
2024/01/23 02:29:19;;;;;;;3.38;1.90;;;9.50;96.70;;;;;;5081353;28;20756;-76
2024/01/23 02:31:48;;;;;;;4.05;1.90;;;9.40;96.70;;;;;;5082959;28;20455;-76
2024/01/23 02:34:24;;;;;;;2.72;1.45;;;9.40;96.70;;;;;;5084757;28;20501;-76
2024/01/23 02:36:53;;;;;;;2.40;1.42;;;9.40;96.70;;;;;;5077992;28;20447;-76
2024/01/23 02:39:25;;;;;;;3.17;1.52;;;9.40;96.70;;;;;;5087106;28;20538;-76
2024/01/23 02:41:54;;;;;;;3.92;1.55;;;9.40;96.70;;;;;;5083399;28;20052;-76
2024/01/23 02:44:23;;;;;;;4.68;1.90;;;9.40;96.70;;;;;;5056677;28;20105;-76
2024/01/23 02:46:52;;;;;;;3.80;1.75;;;9.40;96.70;;;;;;5076890;28;20420;-74
2024/01/23 02:49:22;;;;;;;5.63;2.90;;;9.40;96.70;;;;;;5066722;28;20143;-76
2024/01/23 02:51:52;;;;;;;5.30;1.77;;;9.40;96.70;;;;;;5080981;28;20052;-76
2024/01/23 02:54:26;;;;;;;3.25;1.60;;;9.40;96.70;;;;;;5085836;28;20044;-77
2024/01/23 02:56:56;;;;;;;3.42;1.70;;;9.40;96.70;;;;;;5061134;28;20139;-76
2024/01/23 02:59:27;;;;;;;3.17;1.50;;;9.40;96.70;;;;;;5085877;28;20048;-75
2024/01/23 03:01:56;;;;;;;4.07;1.70;;;9.40;96.70;;;;;;5081687;28;20059;-76
2024/01/23 03:04:25;;;;;;;3.45;1.73;;;9.40;96.70;;;;;;5073854;28;20139;-75
2024/01/23 03:06:54;;;;;;;3.92;2.20;;;9.40;96.70;;;;;;5077572;28;20044;-77
2024/01/23 03:09:24;;;;;;;6.40;1.73;;;9.40;96.70;;;;;;5084697;28;20056;-76
2024/01/23 03:11:54;;;;;;;1.98;1.27;;;9.40;96.70;;;;;;5080827;28;20047;-76
2024/01/23 03:14:22;;;;;;;3.53;1.70;;;9.40;96.70;;;;;;5083640;28;20791;-76
2024/01/23 03:18:01;;;;;;;2.38;1.60;;;9.40;96.70;;;;;;5084249;28;20491;-76
2024/01/23 03:20:20;;;;;;;3.92;1.63;;;9.40;96.70;;;;;;5049033;28;20056;-76
2024/01/23 03:22:50;;;;;;;2.40;1.63;;;9.40;96.70;;;;;;5086036;28;20055;-76
2024/01/23 03:25:20;;;;;;;2.47;1.67;;;9.40;96.70;;;;;;5082011;28;20053;-76
2024/01/23 03:27:50;;;;;;;3.53;1.90;;;9.40;96.70;;;;;;5050488;28;20052;-75
2024/01/23 03:30:28;;;;;;;3.35;1.65;;;9.40;96.70;;;;;;5079742;28;20059;-75
2024/01/23 03:33:03;;;;;;;2.80;1.55;;;9.40;96.70;;;;;;5075158;28;20053;-76
2024/01/23 03:35:32;;;;;;;3.20;1.90;;;9.40;96.70;;;;;;5081122;28;20783;-75
2024/01/23 03:38:00;;;;;;;2.67;1.70;;;9.40;96.70;;;;;;5075136;28;20139;-76
2024/01/23 03:40:30;;;;;;;2.13;1.50;;;9.30;96.70;;;;;;5077082;28;20618;-76
2024/01/23 03:42:59;;;;;;;3.50;1.80;;;9.30;96.70;;;;;;5078610;28;20055;-76
2024/01/23 03:45:28;;;;;;;3.95;1.67;;;9.30;96.70;;;;;;5072695;28;20048;-76
2024/01/23 03:47:57;;;;;;;3.50;1.83;;;9.30;96.70;;;;;;5062770;28;20064;-75
2024/01/23 03:50:26;;;;;;;5.97;1.73;;;9.30;96.70;;;;;;5074457;28;20177;-76
2024/01/23 03:52:54;;;;;;;2.42;1.67;;;9.30;96.70;;;;;;5065523;28;20059;-75
2024/01/23 03:55:23;;;;;;;3.63;2.08;;;9.30;96.70;;;;;;5067571;28;20052;-76
2024/01/23 03:57:54;;;;;;;4.75;1.92;;;9.40;96.70;;;;;;5076940;28;20386;-76
2024/01/23 04:00:34;;;;;;;;;;;;;;;;;;;;;
2024/01/23 04:03:03;;;;;;;3.95;2.17;;;9.40;96.70;;;;;;5065962;28;20063;-76
2024/01/23 04:05:32;;;;;;;3.08;1.90;;;9.40;96.70;;;;;;5066073;28;20055;-76
2024/01/23 04:08:00;;;;;;;3.17;1.55;;;9.40;96.70;;;;;;5067036;28;20063;-76
2024/01/23 04:10:30;;;;;;;2.45;1.52;;;9.40;96.70;;;;;;5070138;28;20056;-76
2024/01/23 04:13:00;;;;;;;2.03;1.40;;;9.40;96.70;;;;;;5081827;28;20052;-76
2024/01/23 04:15:29;;;;;;;2.63;2.00;;;9.40;96.70;;;;;;5075560;28;20048;-76
2024/01/23 04:17:58;;;;;;;3.30;1.48;;;9.40;96.70;;;;;;5072178;28;20083;-76
2024/01/23 04:20:26;;;;;;;4.85;1.52;;;9.40;96.70;;;;;;5062899;28;20056;-76
2024/01/23 04:22:59;;;;;;;3.88;1.58;;;9.40;96.70;;;;;;5082993;28;20059;-76
2024/01/23 04:25:30;;;;;;;2.97;1.70;;;9.40;96.70;;;;;;5071471;28;20131;-75
2024/01/23 04:27:58;;;;;;;3.38;1.63;;;9.40;96.70;;;;;;5076730;28;20064;-76
2024/01/23 04:30:30;;;;;;;2.47;1.50;;;9.40;96.70;;;;;;5084405;28;20136;-76
2024/01/23 04:32:59;;;;;;;3.47;1.58;;;9.40;96.70;;;;;;5080336;28;20098;-76
2024/01/23 04:35:30;;;;;;;3.03;1.60;;;9.40;96.70;;;;;;5074752;28;20059;-75
2024/01/23 04:37:59;;;;;;;1.88;1.40;;;9.40;96.70;;;;;;5080761;28;20052;-76
2024/01/23 04:40:53;;;;;;;2.78;2.05;;;9.40;96.70;;;;;;5057166;28;20147;-76
2024/01/23 04:43:22;;;;;;;3.78;2.10;;;9.40;96.70;;;;;;5081171;28;20044;-75
2024/01/23 04:45:53;;;;;;;5.63;1.98;;;9.40;96.70;;;;;;5083690;28;20129;-76
2024/01/23 04:48:21;;;;;;;3.80;1.90;;;9.30;96.70;;;;;;5074260;28;20061;-76
2024/01/23 04:50:52;;;;;;;3.08;1.60;;;9.30;96.70;;;;;;5075005;28;20409;-76
2024/01/23 04:53:32;;;;;;;2.22;1.50;;;9.30;96.70;;;;;;5075395;28;20044;-76
2024/01/23 04:56:01;;;;;;;2.97;1.90;;;9.30;96.70;;;;;;5078569;28;20053;-76
2024/01/23 04:58:29;;;;;;;2.33;1.60;;;9.30;96.70;;;;;;5084720;28;20052;-77
2024/01/23 05:00:59;;;;;;;3.47;1.70;;;9.30;96.70;;;;;;5087554;28;20060;-76
2024/01/23 05:03:28;;;;;;;4.10;2.80;;;9.30;96.70;;;;;;5078062;28;20049;-76
2024/01/23 05:05:59;;;;;;;3.92;1.83;;;9.30;96.70;;;;;;5087439;28;20051;-76
2024/01/23 05:08:28;;;;;;;3.83;1.75;;;9.30;96.70;;;;;;5087925;28;20069;-76
2024/01/23 05:10:56;;;;;;;2.90;1.92;;;9.30;96.70;;;;;;5069343;28;20059;-76
2024/01/23 05:13:25;;;;;;;1.90;1.45;;;9.30;96.70;;;;;;5079334;28;20056;-76
2024/01/23 05:16:08;;;;;;;2.45;1.85;;;9.30;96.70;;;;;;5082233;28;20088;-76
2024/01/23 05:18:52;;;;;;;4.30;1.42;;;9.30;96.70;;;;;;5058154;28;20083;-76
2024/01/23 05:21:23;;;;;;;2.50;1.27;;;9.40;96.70;;;;;;5087088;28;20521;-76
2024/01/23 05:23:54;;;;;;;3.75;1.50;;;9.40;96.70;;;;;;5087211;28;20051;-76
2024/01/23 05:26:23;;;;;;;3.80;1.40;;;9.40;96.70;;;;;;5080116;28;20117;-76
2024/01/23 05:28:52;;;;;;;2.35;1.67;;;9.40;96.70;;;;;;5086365;28;20060;-75
2024/01/23 05:31:25;;;;;;;2.22;1.27;;;9.40;96.70;;;;;;5085961;28;20048;-76
2024/01/23 05:33:53;;;;;;;3.63;1.77;;;9.40;96.70;;;;;;5073481;28;20053;-76
2024/01/23 05:36:23;;;;;;;4.18;1.75;;;9.40;96.70;;;;;;5048442;28;20052;-76
2024/01/23 05:38:51;;;;;;;1.95;1.40;;;9.40;96.70;;;;;;5061058;28;20048;-75
2024/01/23 05:41:20;;;;;;;2.30;1.42;;;9.40;96.70;;;;;;5087060;28;20074;-76
2024/01/23 05:43:50;;;;;;;3.03;1.48;;;9.40;96.70;;;;;;5088373;28;20060;-76
2024/01/23 05:46:19;;;;;;;3.22;1.40;;;9.40;96.70;;;;;;5084040;28;20054;-76
2024/01/23 05:48:49;;;;;;;3.33;1.48;;;9.40;96.70;;;;;;5082046;28;20052;-76
2024/01/23 05:51:18;;;;;;;3.67;1.40;;;9.40;96.70;;;;;;5087245;28;20056;-76
2024/01/23 05:53:47;;;;;;;2.22;1.35;;;9.40;96.70;;;;;;5079086;28;20495;-76
2024/01/23 05:56:22;;;;;;;2.37;1.47;;;9.40;96.70;;;;;;5075088;28;20147;-76
2024/01/23 05:58:51;;;;;;;2.53;1.33;;;9.40;96.70;;;;;;5083347;28;20290;-76
2024/01/23 06:01:21;;;;;;;2.72;2.00;;;9.40;96.70;;;;;;5064684;28;20067;-76
2024/01/23 06:03:53;;;;;;;3.03;1.52;;;9.40;96.70;;;;;;5088088;28;20040;-76
2024/01/23 06:06:22;;;;;;;1.80;1.50;;;9.40;96.70;;;;;;5073374;28;20048;-76
2024/01/23 06:08:51;;;;;;;4.25;1.80;;;9.40;96.70;;;;;;5079667;28;20044;-76
2024/01/23 06:11:20;;;;;;;2.85;1.85;;;9.40;96.70;;;;;;5070189;28;20063;-76
2024/01/23 06:13:50;;;;;;;2.97;1.60;;;9.40;96.70;;;;;;5099380;28;20059;-76
2024/01/23 06:16:23;;;;;;;2.38;1.40;;;9.40;96.70;;;;;;5055394;28;20076;-76
2024/01/23 06:18:53;;;;;;;2.00;1.40;;;9.40;96.70;;;;;;5075205;28;20044;-76
2024/01/23 06:21:30;;;;;;;3.03;1.42;;;9.40;96.70;;;;;;5076772;28;20064;-76
2024/01/23 06:24:04;;;;;;;2.63;2.00;;;9.40;96.70;;;;;;5082583;28;20400;-76
2024/01/23 06:26:32;;;;;;;2.80;1.60;;;9.40;96.70;;;;;;5079070;28;20074;-76
2024/01/23 06:29:04;;;;;;;4.82;1.65;;;9.40;96.70;;;;;;5077984;28;20047;-75
2024/01/23 06:31:50;;;;;;;2.03;1.40;;;9.40;96.70;;;;;;5082612;28;20665;-76
2024/01/23 06:34:22;;;;;;;3.65;1.73;;;9.40;96.70;;;;;;5083547;28;20121;-76
2024/01/23 06:36:51;;;;;;;2.47;1.33;;;9.40;96.70;;;;;;5078763;28;20873;-76
2024/01/23 06:39:19;;;;;;;1.73;1.20;;;9.40;96.70;;;;;;5067505;28;20559;-76
2024/01/23 06:41:49;;;;;;;3.22;1.50;;;9.40;96.70;;;;;;5079187;28;20059;-76
2024/01/23 06:44:20;;;;;;;1.73;1.40;;;9.40;96.70;;;;;;5086784;28;20045;-76
2024/01/23 06:46:49;;;;;;;3.13;1.40;;;9.40;96.70;;;;;;5086006;28;20048;-76
2024/01/23 06:49:17;;;;;;;3.05;1.50;;;9.40;96.70;;;;;;5080841;28;20164;-76
2024/01/23 06:51:48;;;;;;;4.00;1.60;;;9.40;96.70;;;;;;5079983;28;20055;-75
2024/01/23 06:54:17;;;;;;;2.63;1.58;;;9.30;96.70;;;;;;5066198;28;20045;-76
2024/01/23 06:56:46;;;;;;;2.70;1.60;;;9.30;96.70;;;;;;5078117;28;20056;-76
2024/01/23 06:59:18;;;;;;;2.33;1.80;;;9.20;96.70;;;;;;5079825;28;20091;-76
2024/01/23 07:01:46;;;;;;;3.67;1.98;;;9.20;96.70;;;;;;5083394;28;20087;-76
2024/01/23 07:04:15;;;;;;;2.50;1.77;;;9.20;96.70;;;;;;5060858;28;20040;-76
2024/01/23 07:06:45;;;;;;;2.72;1.80;;;9.20;96.70;;;;;;5077150;28;20942;-76
2024/01/23 07:09:16;;;;;;;4.38;2.15;;;9.20;96.70;;;;;;5071546;28;20128;-76
2024/01/23 07:11:47;;;;;;;3.90;1.90;;;9.20;96.70;;;;;;5081795;28;20145;-76
2024/01/23 07:14:15;;;;;;;3.40;1.90;;;9.20;96.70;;;;;;5085001;28;20484;-76
2024/01/23 07:16:44;;;;;;;2.75;1.83;;;9.10;96.70;;;;;;5078026;28;20138;-75
2024/01/23 07:19:22;;;;;;;4.07;2.20;;;9.10;96.70;;;;;;5063171;28;21258;-76
2024/01/23 07:21:53;;;;;;;3.88;1.83;;;9.10;96.70;;;;;;5072438;28;20132;-76
2024/01/23 07:24:23;;;;;;;3.25;1.75;;;9.10;96.70;;;;;;5085239;28;20048;-76
2024/01/23 07:26:51;;;;;;;4.13;1.90;;;9.10;96.70;;;;;;5084969;28;20059;-76
2024/01/23 07:29:20;;;;;;;3.50;1.90;;;9.10;96.70;;;;;;5085382;28;20135;-76
2024/01/23 07:31:49;;;;;;;3.40;1.90;;;9.10;96.70;;;;;;5061957;28;20532;-76
2024/01/23 07:34:18;;;;;;;3.17;1.67;;;9.10;96.70;;;;;;5079672;28;20067;-76
2024/01/23 07:36:49;;;;;;;2.88;1.98;;;9.10;96.70;;;;;;5067673;28;20703;-75
2024/01/23 07:39:18;;;;;;;4.75;2.22;;;9.10;96.70;;;;;;5075457;28;20062;-75
2024/01/23 07:41:50;;;;;;;3.90;2.22;;;9.10;96.70;;;;;;5059258;28;20059;-76
2024/01/23 07:44:18;;;;;;;3.90;1.98;;;9.10;96.70;;;;;;5085131;28;20055;-75
2024/01/23 07:46:48;;;;;;;4.85;2.03;;;9.20;96.70;;;;;;5084722;28;20468;-75
2024/01/23 07:49:16;;;;;;;3.03;1.73;;;9.20;96.70;;;;;;5077878;28;20102;-75
2024/01/23 07:51:46;;;;;;;3.30;1.98;;;9.20;96.70;;;;;;5064734;28;20048;-76
2024/01/23 07:54:18;;;;;;;3.22;1.98;;;9.30;96.70;;;;;;5069255;28;20106;-76
2024/01/23 07:56:46;;;;;;;4.28;2.45;;;9.40;96.70;;;;;;5065260;28;20513;-76
2024/01/23 07:59:17;;;;;;;3.13;2.30;;;9.40;96.70;;;;;;5048171;28;20056;-76
2024/01/23 08:01:46;;;;;;;3.35;2.30;;;9.40;96.70;;;;;;5066743;28;20098;-75
2024/01/23 08:04:14;;;;;;;4.80;2.58;;;9.40;96.70;;;;;;5066415;28;20056;-75
2024/01/23 08:06:43;;;;;;;3.58;2.55;;;9.40;96.70;;;;;;5066521;28;20056;-76
2024/01/23 08:09:12;;;;;;;4.38;3.03;;;9.50;96.70;;;;;;5064071;28;20056;-76
2024/01/23 08:11:40;;;;;;;5.93;2.90;;;9.50;96.70;;;;;;5067569;28;20098;-76
2024/01/23 08:14:11;;;;;;;6.28;3.15;;;9.60;96.70;;;;;;5064486;28;20478;-75
2024/01/23 08:16:45;;;;;;;6.07;3.80;;;9.60;96.70;;;;;;5065300;28;20580;-75
2024/01/23 08:19:20;;;;;;;4.55;3.35;;;9.60;96.70;;;;;;5062944;28;20080;-76
2024/01/23 08:21:54;;;;;;;3.35;2.72;;;9.70;96.70;;;;;;5059700;28;20067;-76
2024/01/23 08:24:23;;;;;;;4.47;2.90;;;9.70;96.70;;;;;;5061372;28;20060;-75
2024/01/23 08:26:54;;;;;;;4.20;2.70;;;9.80;96.70;;;;;;5061619;28;20052;-76
2024/01/23 08:29:23;;;;;;;3.45;2.85;;;9.80;96.70;;;;;;5056503;28;20056;-76
2024/01/23 08:31:53;;;;;;;3.80;2.40;;;9.90;96.70;;;;;;5063498;28;20103;-75
2024/01/23 08:34:22;;;;;;;4.07;2.40;;;9.90;96.70;;;;;;5069572;28;20059;-76
2024/01/23 08:36:51;;;;;;;3.90;2.03;;;10.00;96.70;;;;;;5068879;28;20052;-75
2024/01/23 08:39:20;;;;;;;2.20;1.88;;;10.00;96.70;;;;;;5068482;28;20461;-74
2024/01/23 08:41:52;;;;;;;3.45;2.15;;;10.00;96.70;;;;;;5068218;28;20048;-76
2024/01/23 08:44:21;;;;;;;3.15;2.00;;;10.00;96.70;;;;;;5065150;28;20152;-76
2024/01/23 08:46:50;;;;;;;3.30;2.08;;;10.00;96.70;;;;;;5054818;28;20417;-75
2024/01/23 08:49:20;;;;;;;3.10;2.00;;;10.00;96.70;;;;;;5057756;28;20054;-76
2024/01/23 08:51:50;;;;;;;4.32;2.13;;;10.10;96.70;;;;;;5072148;28;20076;-75
2024/01/23 08:54:22;;;;;;;2.65;1.83;;;10.20;96.70;;;;;;5078662;28;20138;-77
2024/01/23 08:56:50;;;;;;;2.90;2.05;;;10.20;96.70;;;;;;5085744;28;20071;-76
2024/01/23 08:59:19;;;;;;;4.32;2.05;;;10.20;96.70;;;;;;5082886;28;20152;-76
2024/01/23 09:01:49;;;;;;;4.50;2.03;;;10.20;96.70;;;;;;5084542;28;20054;-76
2024/01/23 09:04:20;;;;;;;4.90;2.08;;;10.30;96.70;;;;;;5067096;28;20111;-75
2024/01/23 09:06:48;;;;;;;3.90;2.30;;;10.30;96.70;;;;;;5082115;28;20060;-75
2024/01/23 09:09:18;;;;;;;2.88;2.10;;;10.40;96.70;;;;;;5089703;28;20064;-75
2024/01/23 09:11:48;;;;;;;5.43;2.00;;;10.40;96.70;;;;;;5086548;28;20058;-75
2024/01/23 09:14:16;;;;;;;4.00;2.30;;;10.50;96.70;;;;;;5069209;28;20059;-74
2024/01/23 09:16:46;;;;;;;4.57;2.20;;;10.60;96.70;;;;;;5084525;28;20066;-75
2024/01/23 09:19:15;;;;;;;5.45;2.63;;;10.60;96.70;;;;;;5081880;28;20055;-75
2024/01/23 09:21:45;;;;;;;5.18;2.88;;;10.70;96.70;;;;;;5069747;28;20048;-76
2024/01/23 09:24:17;;;;;;;4.32;3.00;;;10.80;96.70;;;;;;5083073;28;20056;-75
2024/01/23 09:26:46;;;;;;;5.57;2.97;;;10.90;96.70;;;;;;5071976;28;20147;-75
2024/01/23 09:29:15;;;;;;;5.05;3.45;;;11.00;96.70;;;;;;5083414;28;20102;-75
2024/01/23 09:31:45;;;;;;;7.63;3.70;;;11.10;96.70;;;;;;5093976;28;20052;-75
2024/01/23 09:34:14;;;;;;;5.10;3.75;;;11.10;96.70;;;;;;5060013;28;20454;-76
2024/01/23 09:36:48;;;;;;;6.13;3.35;;;11.20;96.70;;;;;;5074416;28;20063;-76
2024/01/23 09:39:17;;;;;;;4.40;2.67;;;11.20;96.70;;;;;;5086691;28;20550;-76
2024/01/23 09:41:51;;;;;;;7.00;3.38;;;11.30;96.70;;;;;;5068799;28;20059;-76
2024/01/23 09:44:24;;;;;;;6.55;2.95;;;11.30;96.70;;;;;;5083387;28;20054;-76
2024/01/23 09:46:53;;;;;;;6.05;2.90;;;11.40;96.70;;;;;;5073855;28;20791;-75
2024/01/23 09:49:21;;;;;;;5.80;3.35;;;11.30;96.70;;;;;;5083432;28;20048;-75
2024/01/23 09:51:54;;;;;;;4.82;2.53;;;11.40;96.70;;;;;;5081489;28;20056;-76
2024/01/23 09:54:30;;;;;;;6.63;3.10;;;11.40;96.70;;;;;;5105012;27;20053;-76
2024/01/23 09:57:09;;;;;;;4.57;2.03;;;11.40;96.70;;;;;;5082411;28;20134;-75
2024/01/23 09:59:39;;;;;;;2.50;1.88;;;11.60;96.70;;;;;;5077245;28;20051;-76
2024/01/23 10:02:10;;;;;;;3.40;2.35;;;11.80;96.70;;;;;;5067108;28;20055;-76
2024/01/23 10:04:40;;;;;;;3.53;2.38;;;12.00;96.70;;;;;;5071087;28;20044;-76
2024/01/23 10:07:12;;;;;;;4.82;2.70;;;12.20;96.70;;;;;;5072328;28;20063;-76
2024/01/23 10:09:48;;;;;;;3.65;2.45;;;12.20;96.70;;;;;;5082267;28;20521;-76
2024/01/23 10:12:18;;;;;;;6.10;2.72;;;12.20;96.70;;;;;;5068870;28;20048;-76
2024/01/23 10:14:49;;;;;;;6.80;2.65;;;12.20;96.70;;;;;;5077219;28;20093;-76
2024/01/23 10:17:18;;;;;;;3.00;2.08;;;12.20;96.70;;;;;;5065233;28;20573;-76
2024/01/23 10:19:48;;;;;;;5.05;2.60;;;12.20;96.70;;;;;;5081751;28;20079;-76
2024/01/23 10:22:19;;;;;;;5.05;2.58;;;12.10;96.70;;;;;;5077409;28;20137;-77
2024/01/23 10:24:50;;;;;;;3.70;2.60;;;12.30;96.70;;;;;;5083703;28;20517;-75
2024/01/23 10:27:19;;;;;;;7.22;2.30;;;12.40;96.70;;;;;;5078900;28;20405;-76
2024/01/23 10:29:50;;;;;;;5.00;2.92;;;12.40;96.70;;;;;;5074217;28;20071;-76
2024/01/23 10:32:22;;;;;;;3.30;2.50;;;12.50;96.70;;;;;;5068827;28;20084;-76
2024/01/23 10:34:53;;;;;;;3.85;2.17;;;12.60;96.70;;;;;;5075727;28;20048;-76
2024/01/23 10:37:24;;;;;;;4.65;2.92;;;12.70;96.70;;;;;;5075088;28;20110;-76
2024/01/23 10:39:53;;;;;;;4.97;2.58;;;12.70;96.70;;;;;;5079460;28;20068;-76
2024/01/23 10:42:22;;;;;;;6.32;3.00;;;12.70;96.70;;;;;;5076531;28;20055;-75
2024/01/23 10:44:54;;;;;;;2.88;2.40;;;12.70;96.70;;;;;;5072040;28;20062;-76
2024/01/23 10:47:22;;;;;;;4.95;2.65;;;12.70;96.70;;;;;;5076498;28;20052;-76
2024/01/23 10:49:51;;;;;;;3.53;2.80;;;12.50;96.70;;;;;;5059677;28;20862;-76
2024/01/23 10:52:30;;;;;;;6.15;3.47;;;12.40;96.70;;;;;;5068929;28;20200;-76
2024/01/23 10:55:05;;;;;;;6.30;3.00;;;12.40;96.70;;;;;;5068671;28;20061;-76
2024/01/23 10:57:36;;;;;;;6.90;3.22;;;12.50;96.70;;;;;;5081489;28;20062;-76
2024/01/23 11:00:13;;;;;;;6.68;2.88;;;12.50;96.70;;;;;;5085666;28;20129;-76
2024/01/23 11:02:46;;;;;;;4.97;3.20;;;12.50;96.70;;;;;;5063499;28;20048;-76
2024/01/23 11:05:19;;;;;;;6.68;3.47;;;12.60;96.70;;;;;;5085935;28;20044;-76
2024/01/23 11:07:55;;;;;;;4.18;2.78;;;12.70;96.70;;;;;;5077348;28;20051;-75
2024/01/23 11:10:28;;;;;;;3.88;2.38;;;12.80;96.70;;;;;;5084074;28;20059;-78
2024/01/23 11:13:07;;;;;;;5.45;2.70;;;12.90;96.70;;;;;;5065545;28;20592;-76
2024/01/23 11:15:36;;;;;;;4.10;2.50;;;13.00;96.70;;;;;;5077151;28;20052;-76
2024/01/23 11:18:28;;;;;;;6.03;2.60;;;13.10;96.70;;;;;;5066986;28;20060;-75
2024/01/23 11:21:13;;;;;;;4.25;2.53;;;13.00;96.70;;;;;;5071792;28;20129;-75
2024/01/23 11:23:45;;;;;;;4.90;2.15;;;13.00;96.70;;;;;;5064773;28;20081;-76
2024/01/23 11:26:19;;;;;;;6.80;2.67;;;13.00;96.70;;;;;;5068380;28;20433;-76
2024/01/23 11:28:51;;;;;;;5.00;2.35;;;13.00;96.70;;;;;;5059619;28;20102;-76
2024/01/23 11:31:21;;;;;;;4.30;2.95;;;13.10;96.70;;;;;;5081477;28;20056;-76
2024/01/23 11:33:53;;;;;;;4.60;2.45;;;13.10;96.70;;;;;;5077986;28;20052;-76
2024/01/23 11:36:25;;;;;;;4.28;2.30;;;13.30;96.70;;;;;;5067921;28;20052;-75
2024/01/23 11:39:00;;;;;;;3.47;2.08;;;13.40;96.70;;;;;;5075771;28;20071;-76
2024/01/23 11:41:30;;;;;;;4.95;2.10;;;13.30;96.70;;;;;;5079386;28;20057;-76
2024/01/23 11:44:04;;;;;;;5.35;2.20;;;13.30;96.70;;;;;;5078184;28;20055;-75
2024/01/23 11:46:36;;;;;;;4.20;2.10;;;13.40;96.70;;;;;;5083413;28;20048;-75
2024/01/23 11:49:07;;;;;;;4.88;2.47;;;13.60;96.70;;;;;;5073480;28;20068;-75
2024/01/23 11:51:39;;;;;;;5.05;2.75;;;13.60;96.70;;;;;;5071888;28;20056;-76
2024/01/23 11:54:10;;;;;;;7.22;2.85;;;13.50;96.70;;;;;;5083220;28;20071;-76
2024/01/23 11:56:41;;;;;;;4.90;2.55;;;13.50;96.70;;;;;;5074935;28;20057;-76
2024/01/23 11:59:11;;;;;;;7.88;2.95;;;13.40;96.70;;;;;;5075865;28;20052;-77
2024/01/23 12:01:42;;;;;;;7.63;3.30;;;13.40;96.70;;;;;;5074419;28;20061;-76
2024/01/23 12:04:11;;;;;;;7.32;4.07;;;13.40;96.70;;;;;;5068825;28;20131;-76
2024/01/23 12:06:41;;;;;;;7.07;3.65;;;13.40;96.70;;;;;;5082703;28;20828;-76
2024/01/23 12:09:13;;;;;;;6.10;3.83;;;13.40;96.70;;;;;;5083899;28;20060;-76
2024/01/23 12:11:43;;;;;;;9.00;4.22;;;13.40;96.70;;;;;;5072874;28;20056;-76
2024/01/23 12:14:11;;;;;;;7.95;4.22;;;13.40;96.70;;;;;;5071799;28;20056;-76
2024/01/23 12:16:42;;;;;;;7.57;4.10;;;13.40;96.70;;;;;;5063605;28;20553;-76
2024/01/23 12:19:11;;;;;;;7.15;4.00;;;13.40;96.70;;;;;;5082962;28;20521;-77
2024/01/23 12:21:41;;;;;;;8.30;4.50;;;13.30;96.70;;;;;;5084152;28;20142;-76
2024/01/23 12:24:10;;;;;;;7.35;4.32;;;13.30;96.70;;;;;;5076247;28;21104;-76
2024/01/23 12:26:47;;;;;;;5.85;3.88;;;13.30;96.70;;;;;;5073067;28;20075;-76
2024/01/23 12:29:17;;;;;;;9.23;4.93;;;13.20;96.70;;;;;;5078159;28;20057;-76
2024/01/23 12:31:47;;;;;;;7.30;4.90;;;13.20;96.70;;;;;;5056079;28;20052;-76
2024/01/23 12:34:20;;;;;;;5.45;3.75;;;13.30;96.70;;;;;;5072802;28;20052;-76
2024/01/23 12:36:50;;;;;;;9.48;4.60;;;13.40;96.70;;;;;;5078899;28;20581;-76
2024/01/23 12:39:22;;;;;;;8.45;3.92;;;13.40;96.70;;;;;;5066908;28;20529;-76
2024/01/23 12:41:52;;;;;;;5.68;3.88;;;13.40;96.70;;;;;;5081217;28;20052;-76
2024/01/23 12:44:22;;;;;;;7.28;4.07;;;13.40;96.70;;;;;;5095134;28;20060;-76
2024/01/23 12:46:50;;;;;;;8.75;3.80;;;13.40;96.70;;;;;;5056104;28;20537;-74
2024/01/23 12:49:19;;;;;;;4.85;3.10;;;13.50;96.70;;;;;;5076181;28;20630;-76
2024/01/23 12:51:50;;;;;;;7.20;3.55;;;13.60;96.70;;;;;;5074697;28;20056;-76
2024/01/23 12:54:29;;;;;;;7.20;3.80;;;13.60;96.70;;;;;;5080522;28;20063;-75
2024/01/23 12:57:00;;;;;;;6.95;3.50;;;13.60;96.70;;;;;;5015214;28;20053;-76
2024/01/23 12:59:32;;;;;;;6.07;3.10;;;13.60;96.70;;;;;;5071132;28;20744;-76
2024/01/23 13:02:00;;;;;;;9.40;3.63;;;13.60;96.70;;;;;;5072536;28;20076;-76
2024/01/23 13:04:30;;;;;;;6.00;3.50;;;13.60;96.70;;;;;;5073327;28;20044;-76
2024/01/23 13:07:00;;;;;;;9.98;3.55;;;13.70;96.70;;;;;;5065423;28;20056;-76
2024/01/23 13:09:28;;;;;;;7.68;3.38;;;13.90;96.70;;;;;;5074848;28;20062;-76
2024/01/23 13:12:02;;;;;;;8.25;3.20;;;14.20;96.70;;;;;;5079039;28;20051;-75
2024/01/23 13:14:34;;;;;;;6.13;3.75;;;14.30;96.70;;;;;;5075080;28;20056;-76